Terminal Aerodrome Forecast
Issued by NWS

Home | Current Version | Previous Version | Graphics & Text | Print | Product List | Glossary On
Versions: 1 2 3 4 5 6 7 8 9 10 11 12 13 14 15
000
FTUS43 KBIS 220533
TAFMOT
TAF
KMOT 220533Z 2206/2306 12012KT P6SM FEW250
     FM220900 13013G21KT P6SM BKN090
     FM221800 15018G28KT P6SM OVC030
     FM222200 15015G23KT P6SM BKN060
     FM230300 16009KT P6SM BKN140=

USA.gov is the U.S. government's official web portal to all federal, state and local government web resources and services.